createdAt,value
2018-12-06T00:00:31.658Z,83.45
2018-12-06T00:02:59.182Z,82.61
2018-12-06T00:05:26.723Z,83.15
2018-12-06T00:08:06.104Z,82.16
2018-12-06T00:10:34.539Z,82.47
2018-12-06T00:13:02.271Z,83.23
2018-12-06T00:15:29.883Z,83.92
2018-12-06T00:17:57.387Z,82.25
2018-12-06T00:20:25.061Z,82.79
2018-12-06T00:22:52.614Z,83.38
2018-12-06T00:25:20.170Z,83.13
2018-12-06T00:27:47.701Z,83.54
2018-12-06T00:30:41.502Z,82.81
2018-12-06T00:33:09.237Z,83.06
2018-12-06T00:35:36.817Z,83.76
2018-12-06T00:38:04.485Z,83.95
2018-12-06T00:40:33.829Z,84.97
2018-12-06T00:43:01.406Z,83.86
2018-12-06T00:45:28.978Z,85.04
2018-12-06T00:47:56.633Z,83.72
2018-12-06T00:50:24.863Z,83.91
2018-12-06T00:52:53.390Z,84.57
2018-12-06T00:55:20.979Z,83.84
2018-12-06T00:57:48.540Z,83.45
2018-12-06T01:00:16.177Z,83.93
2018-12-06T01:02:45.327Z,84.18
2018-12-06T01:05:13.125Z,84.24
2018-12-06T01:07:40.636Z,84.21
2018-12-06T01:10:08.284Z,84.18
2018-12-06T01:12:35.865Z,84.54
2018-12-06T01:15:03.587Z,83.85
2018-12-06T01:17:31.174Z,83.49
2018-12-06T01:19:58.719Z,84.11
2018-12-06T01:22:26.301Z,83.82
2018-12-06T01:24:53.845Z,83.75
2018-12-06T01:27:21.405Z,84.50
2018-12-06T01:29:51.230Z,83.71
2018-12-06T01:32:18.783Z,84.50
2018-12-06T01:34:46.391Z,84.62
2018-12-06T01:37:14.002Z,84.87
2018-12-06T01:39:41.669Z,84.50
2018-12-06T01:42:09.252Z,83.91
2018-12-06T01:44:36.821Z,84.86
2018-12-06T01:47:04.370Z,84.13
2018-12-06T01:49:32.357Z,83.43
2018-12-06T01:51:59.981Z,84.07
2018-12-06T01:54:27.557Z,84.30
2018-12-06T01:56:55.096Z,83.99
2018-12-06T01:59:22.619Z,85.05
2018-12-06T02:01:51.122Z,84.13
2018-12-06T02:04:18.706Z,84.16
2018-12-06T02:06:46.366Z,83.18
2018-12-06T02:09:14.902Z,83.50
2018-12-06T02:11:42.536Z,83.83
2018-12-06T02:14:10.170Z,83.97
2018-12-06T02:16:38.714Z,83.94
2018-12-06T02:19:07.327Z,84.51
2018-12-06T02:21:35.547Z,83.98
2018-12-06T02:24:03.208Z,84.21
2018-12-06T02:26:30.801Z,84.06
2018-12-06T02:28:59.100Z,84.17
2018-12-06T02:31:26.811Z,83.44
2018-12-06T02:33:54.474Z,84.02
2018-12-06T02:36:22.106Z,83.80
2018-12-06T02:38:49.694Z,84.04
2018-12-06T02:41:17.228Z,84.32
2018-12-06T02:43:44.981Z,83.86
2018-12-06T02:46:12.492Z,83.09
2018-12-06T02:48:40.030Z,83.67
2018-12-06T02:51:07.620Z,82.15
2018-12-06T02:53:35.165Z,82.61
2018-12-06T02:56:03.597Z,82.27
2018-12-06T02:58:31.128Z,81.94
2018-12-06T03:00:58.714Z,83.00
2018-12-06T03:03:26.223Z,82.09
2018-12-06T03:05:53.760Z,82.36
2018-12-06T03:08:22.241Z,81.31
2018-12-06T03:10:49.755Z,81.24
2018-12-06T03:13:17.309Z,80.14
2018-12-06T03:15:45.629Z,80.60
2018-12-06T03:18:14.066Z,80.99
2018-12-06T03:20:41.560Z,80.40
2018-12-06T03:23:09.096Z,80.22
2018-12-06T03:25:36.762Z,80.40
2018-12-06T03:28:04.294Z,80.37
2018-12-06T03:30:31.856Z,80.05
2018-12-06T03:32:59.472Z,79.64
2018-12-06T03:35:27.166Z,79.47
2018-12-06T03:37:54.758Z,79.58
2018-12-06T03:40:22.286Z,79.46
2018-12-06T03:42:49.838Z,79.84
2018-12-06T03:45:17.412Z,80.26
2018-12-06T03:47:44.971Z,79.69
2018-12-06T03:50:12.698Z,79.62
2018-12-06T03:52:40.289Z,80.10
2018-12-06T03:55:07.883Z,80.00
2018-12-06T03:57:35.504Z,79.67
2018-12-06T04:00:03.531Z,79.40
2018-12-06T04:02:31.033Z,79.71
2018-12-06T04:04:58.615Z,79.76
2018-12-06T04:07:26.775Z,79.91
2018-12-06T04:09:54.676Z,79.40
2018-12-06T04:12:22.227Z,79.54
2018-12-06T04:14:49.790Z,80.33
2018-12-06T04:17:17.710Z,79.69
2018-12-06T04:19:45.246Z,79.64
2018-12-06T04:22:12.943Z,79.24
2018-12-06T04:24:40.558Z,79.42
2018-12-06T04:27:08.154Z,79.49
2018-12-06T04:29:37.389Z,79.02
2018-12-06T04:32:05.051Z,78.48
2018-12-06T04:34:32.609Z,78.32
2018-12-06T04:37:00.276Z,78.02
2018-12-06T04:39:27.980Z,78.56
2018-12-06T04:41:55.512Z,78.23
2018-12-06T04:44:23.055Z,77.75
2018-12-06T04:46:51.592Z,77.91
2018-12-06T04:49:19.200Z,77.58
2018-12-06T04:51:46.835Z,77.60
2018-12-06T04:54:14.524Z,77.91
2018-12-06T04:56:42.123Z,77.81
2018-12-06T04:59:09.651Z,77.59
2018-12-06T05:01:37.264Z,78.15
2018-12-06T05:04:05.543Z,77.56
2018-12-06T05:06:33.846Z,77.44
2018-12-06T05:09:02.135Z,77.68
2018-12-06T05:11:29.778Z,77.91
2018-12-06T05:13:57.360Z,77.85
2018-12-06T05:16:27.044Z,78.14
2018-12-06T05:18:54.625Z,78.14
2018-12-06T05:21:22.154Z,77.98
2018-12-06T05:23:49.724Z,78.29
2018-12-06T05:26:17.314Z,77.99
2018-12-06T05:28:45.437Z,78.06
2018-12-06T05:31:13.632Z,77.93
2018-12-06T05:33:41.488Z,77.63
2018-12-06T05:36:09.054Z,77.43
2018-12-06T05:38:36.859Z,77.73
2018-12-06T05:41:04.922Z,77.85
2018-12-06T05:43:33.291Z,77.69
2018-12-06T05:46:01.373Z,77.58
2018-12-06T05:48:28.982Z,77.47
2018-12-06T05:50:56.506Z,77.61
2018-12-06T05:53:24.671Z,79.15
2018-12-06T05:55:52.613Z,79.55
2018-12-06T05:58:20.306Z,78.29
2018-12-06T06:00:48.011Z,78.14
2018-12-06T06:03:15.626Z,78.14
2018-12-06T06:05:43.770Z,77.92
2018-12-06T06:08:11.934Z,77.51
2018-12-06T06:10:39.671Z,77.89
2018-12-06T06:13:07.513Z,77.51
2018-12-06T06:15:35.173Z,77.91
2018-12-06T06:18:02.943Z,78.05
2018-12-06T06:20:30.646Z,78.04
2018-12-06T06:22:58.164Z,78.10
2018-12-06T06:25:26.250Z,77.97
2018-12-06T06:27:53.776Z,78.06
2018-12-06T06:30:22.237Z,78.03
2018-12-06T06:32:49.745Z,79.25
2018-12-06T06:35:17.711Z,79.04
2018-12-06T06:37:45.238Z,78.92
2018-12-06T06:40:13.432Z,78.97
2018-12-06T06:42:42.142Z,79.19
2018-12-06T06:45:11.332Z,79.46
2018-12-06T06:47:38.925Z,79.03
2018-12-06T06:50:06.558Z,79.31
2018-12-06T06:52:34.602Z,79.38
2018-12-06T06:55:03.409Z,78.86
2018-12-06T06:57:33.434Z,79.20
2018-12-06T07:00:03.016Z,79.10
2018-12-06T07:02:32.050Z,79.21
2018-12-06T07:04:59.700Z,78.91
2018-12-06T07:07:28.755Z,79.03
2018-12-06T07:09:57.052Z,79.12
2018-12-06T07:12:25.513Z,79.26
2018-12-06T07:14:55.303Z,79.13
2018-12-06T07:17:28.066Z,79.23
2018-12-06T07:20:01.423Z,79.50
2018-12-06T07:22:33.613Z,79.24
2018-12-06T07:25:01.726Z,79.02
2018-12-06T07:27:34.709Z,79.28
2018-12-06T07:30:12.193Z,79.54
2018-12-06T07:32:37.644Z,79.56
2018-12-06T07:35:05.495Z,79.41
2018-12-06T07:37:33.688Z,79.29
2018-12-06T07:40:01.217Z,79.69
2018-12-06T07:42:28.835Z,79.80
2018-12-06T07:44:56.384Z,79.72
2018-12-06T07:47:25.467Z,80.36
2018-12-06T07:49:53.017Z,80.17
2018-12-06T07:52:20.610Z,80.19
2018-12-06T07:54:49.119Z,80.54
2018-12-06T07:59:58.078Z,80.55
2018-12-06T08:02:41.877Z,80.06
2018-12-06T08:08:26.710Z,80.44
2018-12-06T08:10:54.393Z,80.77
2018-12-06T08:13:23.040Z,81.01
2018-12-06T08:15:50.741Z,80.91
2018-12-06T08:18:18.369Z,81.04
2018-12-06T08:20:46.435Z,80.78
2018-12-06T08:23:14.006Z,81.03
2018-12-06T08:25:42.221Z,80.87
2018-12-06T08:28:09.873Z,80.94
2018-12-06T08:30:37.499Z,82.23
2018-12-06T08:33:05.053Z,81.53
2018-12-06T08:35:33.409Z,81.37
2018-12-06T08:38:02.357Z,81.96
2018-12-06T08:40:31.463Z,83.15
2018-12-06T08:42:59.082Z,81.26
2018-12-06T08:45:30.379Z,81.40
2018-12-06T08:47:59.660Z,81.33
2018-12-06T08:50:28.567Z,81.29
2018-12-06T08:52:56.720Z,81.35
2018-12-06T08:55:24.310Z,81.21
2018-12-06T08:57:53.076Z,81.33
2018-12-06T09:00:21.990Z,81.50
2018-12-06T09:02:49.551Z,81.49
2018-12-06T09:05:18.339Z,81.55
2018-12-06T09:07:45.865Z,82.02
2018-12-06T09:10:14.214Z,81.92
2018-12-06T09:12:41.947Z,81.79
2018-12-06T09:15:10.111Z,82.64
2018-12-06T09:17:37.647Z,81.64
2018-12-06T09:20:05.591Z,81.53
2018-12-06T09:22:33.179Z,82.39
2018-12-06T09:25:00.740Z,81.48
2018-12-06T09:27:28.589Z,81.96
2018-12-06T09:29:57.043Z,81.22
2018-12-06T09:32:25.116Z,81.35
2018-12-06T09:34:53.720Z,81.59
2018-12-06T09:37:22.633Z,81.87
2018-12-06T09:39:55.968Z,81.13
2018-12-06T09:42:25.704Z,81.31
2018-12-06T09:44:54.269Z,81.64
2018-12-06T09:47:21.779Z,81.69
2018-12-06T09:49:52.341Z,81.34
2018-12-06T09:52:21.785Z,81.15
2018-12-06T09:54:49.849Z,80.97
2018-12-06T09:57:20.225Z,80.86
2018-12-06T09:59:47.846Z,80.55
2018-12-06T10:02:17.182Z,80.38
2018-12-06T10:04:48.800Z,80.66
2018-12-06T10:07:18.495Z,81.09
2018-12-06T10:09:46.253Z,81.34
2018-12-06T10:12:13.763Z,81.25
2018-12-06T10:14:41.425Z,81.16
2018-12-06T10:17:10.926Z,81.25
2018-12-06T10:19:39.582Z,81.72
2018-12-06T10:22:07.146Z,81.62
2018-12-06T10:24:35.604Z,81.80
2018-12-06T10:27:03.926Z,81.68
2018-12-06T10:29:35.423Z,82.16
2018-12-06T10:32:02.991Z,81.81
2018-12-06T10:34:33.371Z,81.90
2018-12-06T10:37:01.080Z,82.13
2018-12-06T10:39:30.120Z,82.08
2018-12-06T10:41:57.841Z,82.16
2018-12-06T10:44:29.660Z,82.18
2018-12-06T10:46:58.286Z,82.69
2018-12-06T10:49:26.734Z,82.23
2018-12-06T10:51:55.326Z,82.72
2018-12-06T10:54:22.838Z,82.49
2018-12-06T10:56:51.896Z,82.42
2018-12-06T10:59:19.454Z,82.29
2018-12-06T11:01:47.012Z,82.71
2018-12-06T11:04:14.582Z,82.64
2018-12-06T11:06:42.255Z,82.73
2018-12-06T11:09:09.980Z,82.66
2018-12-06T11:11:38.333Z,83.10
2018-12-06T11:14:06.380Z,82.91
2018-12-06T11:16:37.331Z,83.02
2018-12-06T11:19:05.774Z,83.33
2018-12-06T11:21:33.361Z,83.35
2018-12-06T11:24:00.922Z,83.49
2018-12-06T11:26:28.476Z,83.85
2018-12-06T11:28:56.057Z,83.81
2018-12-06T11:31:24.267Z,84.02
2018-12-06T11:33:51.800Z,83.94
2018-12-06T11:36:19.970Z,84.53
2018-12-06T11:38:47.644Z,84.39
2018-12-06T11:41:16.100Z,84.61
2018-12-06T11:43:43.769Z,84.64
2018-12-06T11:46:11.396Z,84.56
2018-12-06T11:48:38.941Z,84.55
2018-12-06T11:51:06.481Z,84.50
2018-12-06T11:53:34.686Z,84.61
2018-12-06T11:56:03.713Z,84.74
2018-12-06T11:58:36.771Z,84.86
2018-12-06T12:01:05.505Z,84.76
2018-12-06T12:03:33.178Z,84.91
2018-12-06T12:06:00.926Z,85.12
2018-12-06T12:08:28.456Z,85.22
2018-12-06T12:10:56.658Z,85.12
2018-12-06T12:13:24.980Z,85.02
2018-12-06T12:15:55.023Z,85.07
2018-12-06T12:18:25.073Z,85.14
2018-12-06T12:20:56.624Z,85.44
2018-12-06T12:23:27.664Z,85.57
2018-12-06T12:25:55.844Z,85.46
2018-12-06T12:28:28.544Z,85.37
2018-12-06T12:30:56.119Z,85.57
2018-12-06T12:33:25.105Z,85.41
2018-12-06T12:35:55.643Z,85.34
2018-12-06T12:38:23.756Z,85.78
2018-12-06T12:40:52.608Z,85.70
2018-12-06T12:43:22.015Z,85.62
2018-12-06T12:45:51.617Z,86.35
2018-12-06T12:48:20.245Z,86.27
2018-12-06T12:50:50.892Z,86.03
2018-12-06T12:53:19.266Z,86.39
2018-12-06T12:55:48.276Z,86.45
2018-12-06T12:58:18.698Z,86.30
2018-12-06T13:00:47.093Z,86.58
2018-12-06T13:03:18.030Z,86.43
2018-12-06T13:05:47.407Z,86.49
2018-12-06T13:08:19.998Z,86.75
2018-12-06T13:10:48.311Z,86.64
2018-12-06T13:13:16.224Z,86.61
2018-12-06T13:15:44.056Z,86.56
2018-12-06T13:18:11.876Z,86.68
2018-12-06T13:20:39.381Z,86.93
2018-12-06T13:23:06.879Z,86.93
2018-12-06T13:25:35.048Z,87.08
2018-12-06T13:28:03.603Z,86.85
2018-12-06T13:30:33.242Z,87.04
2018-12-06T13:33:01.065Z,87.16
2018-12-06T13:35:28.804Z,87.62
2018-12-06T13:37:56.382Z,87.93
2018-12-06T13:40:24.091Z,88.13
2018-12-06T13:42:52.045Z,88.07
2018-12-06T13:45:19.643Z,88.04
2018-12-06T13:47:47.242Z,88.41
2018-12-06T13:50:14.912Z,88.28
2018-12-06T13:52:42.416Z,88.68
2018-12-06T13:55:11.850Z,88.71
2018-12-06T13:57:39.458Z,88.44
2018-12-06T14:00:07.356Z,88.20
2018-12-06T14:02:34.970Z,88.17
2018-12-06T14:05:02.487Z,88.31
2018-12-06T14:07:30.136Z,88.33
2018-12-06T14:09:57.743Z,88.71
2018-12-06T14:12:26.194Z,88.49
2018-12-06T14:14:53.807Z,88.16
2018-12-06T14:17:21.376Z,88.51
2018-12-06T14:19:48.986Z,88.78
2018-12-06T14:22:16.575Z,88.99
2018-12-06T14:24:44.173Z,89.00
2018-12-06T14:27:12.886Z,89.12
2018-12-06T14:29:40.454Z,88.40
2018-12-06T14:32:07.974Z,88.55
2018-12-06T14:34:35.537Z,88.42
2018-12-06T14:37:03.054Z,88.52
2018-12-06T14:39:30.801Z,88.46
2018-12-06T14:41:58.369Z,88.49
2018-12-06T14:44:26.123Z,88.60
2018-12-06T14:46:53.731Z,88.88
2018-12-06T14:49:21.277Z,88.73
2018-12-06T14:51:49.269Z,88.78
2018-12-06T14:54:16.823Z,88.76
2018-12-06T14:56:44.498Z,88.74
2018-12-06T14:59:12.062Z,88.97
2018-12-06T15:01:39.668Z,88.55
2018-12-06T15:04:07.269Z,89.16
2018-12-06T15:06:37.729Z,88.92
2018-12-06T15:09:08.616Z,88.92
2018-12-06T15:11:37.167Z,89.17
2018-12-06T15:14:04.775Z,89.15
2018-12-06T15:16:32.305Z,89.30
2018-12-06T15:18:59.849Z,88.82
2018-12-06T15:21:27.549Z,89.02
2018-12-06T15:23:55.083Z,88.71
2018-12-06T15:26:22.933Z,89.23
2018-12-06T15:28:51.285Z,88.81
2018-12-06T15:31:20.198Z,89.15
2018-12-06T15:33:47.730Z,88.86
2018-12-06T15:36:15.623Z,88.90
2018-12-06T15:38:43.336Z,88.88
2018-12-06T15:41:12.148Z,89.09
2018-12-06T15:43:39.861Z,88.89
2018-12-06T15:46:07.467Z,88.88
2018-12-06T15:48:35.061Z,89.00
2018-12-06T15:51:03.099Z,89.24
2018-12-06T15:53:30.676Z,89.18
2018-12-06T15:55:58.932Z,89.21
2018-12-06T15:58:28.426Z,89.48
2018-12-06T16:00:56.858Z,89.71
2018-12-06T16:03:24.463Z,89.37
2018-12-06T16:05:51.997Z,89.65
2018-12-06T16:08:19.752Z,89.58
2018-12-06T16:10:49.242Z,89.59
2018-12-06T16:13:17.101Z,89.57
2018-12-06T16:15:44.759Z,89.62
2018-12-06T16:18:12.442Z,89.73
2018-12-06T16:20:40.122Z,90.48
2018-12-06T16:23:07.899Z,89.74
2018-12-06T16:25:35.542Z,89.97
2018-12-06T16:28:03.227Z,90.00
2018-12-06T16:30:30.766Z,90.40
2018-12-06T16:32:59.181Z,90.10
2018-12-06T16:35:28.564Z,90.42
2018-12-06T16:37:57.124Z,90.53
2018-12-06T16:40:25.625Z,90.75
2018-12-06T16:42:53.442Z,90.75
2018-12-06T16:45:21.072Z,90.73
2018-12-06T16:47:48.639Z,90.81
2018-12-06T16:50:16.173Z,90.79
2018-12-06T16:52:43.776Z,90.40
2018-12-06T16:55:11.563Z,90.50
2018-12-06T16:57:39.149Z,90.09
2018-12-06T17:00:11.285Z,90.30
2018-12-06T17:02:39.021Z,89.90
2018-12-06T17:05:06.680Z,89.70
2018-12-06T17:07:34.208Z,89.39
2018-12-06T17:10:02.726Z,89.30
2018-12-06T17:12:30.384Z,89.27
2018-12-06T17:14:59.062Z,88.96
2018-12-06T17:17:27.628Z,89.17
2018-12-06T17:19:59.225Z,88.88
2018-12-06T17:22:27.243Z,88.72
2018-12-06T17:24:54.886Z,88.52
2018-12-06T17:27:22.679Z,88.57
2018-12-06T17:29:50.261Z,88.52
2018-12-06T17:32:20.980Z,88.17
2018-12-06T17:34:48.652Z,88.04
2018-12-06T17:37:17.500Z,87.51
2018-12-06T17:39:45.613Z,87.24
2018-12-06T17:42:13.378Z,86.85
2018-12-06T17:47:24.625Z,86.43
2018-12-06T17:49:55.195Z,86.27
2018-12-06T17:52:27.066Z,86.41
2018-12-06T17:54:55.256Z,86.22
2018-12-06T17:57:23.843Z,86.17
2018-12-06T17:59:57.620Z,85.91
2018-12-06T18:02:28.117Z,85.85
2018-12-06T18:04:56.441Z,85.98
2018-12-06T18:07:24.851Z,85.80
2018-12-06T18:09:52.728Z,85.79
2018-12-06T18:12:20.739Z,85.58
2018-12-06T18:14:49.844Z,85.73
2018-12-06T18:17:17.426Z,85.62
2018-12-06T18:19:47.920Z,85.60
2018-12-06T18:22:15.579Z,85.37
2018-12-06T18:24:43.177Z,85.49
2018-12-06T18:27:10.914Z,85.25
2018-12-06T18:29:38.461Z,85.11
2018-12-06T18:32:06.117Z,85.37
2018-12-06T18:34:33.741Z,84.99
2018-12-06T18:37:02.901Z,84.98
2018-12-06T18:39:31.994Z,84.72
2018-12-06T18:41:59.652Z,85.08
2018-12-06T18:44:27.268Z,85.04
2018-12-06T18:46:55.573Z,84.91
2018-12-06T18:49:24.094Z,85.17
2018-12-06T18:51:51.640Z,85.12
2018-12-06T18:54:19.143Z,85.19
2018-12-06T18:56:47.514Z,85.01
2018-12-06T18:59:15.422Z,85.27
2018-12-06T19:01:46.018Z,85.10
2018-12-06T19:04:14.224Z,85.25
2018-12-06T19:06:42.017Z,85.13
2018-12-06T19:09:10.416Z,85.21
2018-12-06T19:11:37.996Z,85.43
2018-12-06T19:14:06.607Z,85.21
2018-12-06T19:16:34.161Z,85.50
2018-12-06T19:19:01.774Z,85.35
2018-12-06T19:21:29.719Z,85.22
2018-12-06T19:23:57.249Z,85.31
2018-12-06T19:26:24.887Z,85.29
2018-12-06T19:28:52.395Z,85.22
2018-12-06T19:31:20.007Z,84.88
2018-12-06T19:33:47.571Z,85.23
2018-12-06T19:36:15.100Z,85.01
2018-12-06T19:38:42.684Z,85.11
2018-12-06T19:41:10.206Z,85.04
2018-12-06T19:43:38.372Z,85.20
2018-12-06T19:46:06.532Z,84.75
2018-12-06T19:48:34.095Z,84.95
2018-12-06T19:51:01.623Z,84.87
2018-12-06T19:53:29.214Z,84.82
2018-12-06T19:55:56.806Z,84.92
2018-12-06T19:58:24.411Z,84.95
2018-12-06T20:00:51.976Z,84.90
2018-12-06T20:03:19.952Z,85.02
2018-12-06T20:05:47.902Z,84.75
2018-12-06T20:08:16.768Z,84.80
2018-12-06T20:10:44.336Z,84.59
2018-12-06T20:13:11.887Z,84.44
2018-12-06T20:15:39.907Z,84.59
2018-12-06T20:18:07.625Z,84.75
2018-12-06T20:20:35.148Z,84.28
2018-12-06T20:23:03.258Z,84.49
2018-12-06T20:25:30.889Z,84.52
2018-12-06T20:27:58.481Z,84.84
2018-12-06T20:30:26.144Z,84.54
2018-12-06T20:32:53.704Z,85.05
2018-12-06T20:35:21.214Z,84.70
2018-12-06T20:37:48.745Z,84.71
2018-12-06T20:40:16.299Z,84.75
2018-12-06T20:42:43.941Z,84.94
2018-12-06T20:45:11.728Z,84.88
2018-12-06T20:47:39.277Z,84.89
2018-12-06T20:50:06.875Z,84.87
2018-12-06T20:52:35.387Z,84.85
2018-12-06T20:55:03.124Z,84.93
2018-12-06T20:57:37.220Z,84.82
2018-12-06T21:00:02.029Z,85.01
2018-12-06T21:02:29.763Z,84.90
2018-12-06T21:04:57.369Z,85.05
2018-12-06T21:07:25.343Z,85.10
2018-12-06T21:09:53.113Z,84.93
2018-12-06T21:12:20.663Z,84.76
2018-12-06T21:14:48.582Z,84.96
2018-12-06T21:17:16.117Z,85.15
2018-12-06T21:19:43.689Z,84.93
2018-12-06T21:22:11.436Z,85.00
2018-12-06T21:24:38.981Z,85.12
2018-12-06T21:27:06.998Z,85.07
2018-12-06T21:29:34.899Z,85.15
2018-12-06T21:32:02.962Z,85.20
2018-12-06T21:34:30.967Z,84.97
2018-12-06T21:36:58.529Z,85.37
2018-12-06T21:39:26.077Z,85.52
2018-12-06T21:41:53.641Z,85.16
2018-12-06T21:44:21.692Z,85.52
2018-12-06T21:46:49.298Z,85.40
2018-12-06T21:49:16.913Z,85.30
2018-12-06T21:51:44.513Z,85.62
2018-12-06T21:54:12.191Z,85.41
2018-12-06T21:56:39.889Z,85.39
2018-12-06T21:59:07.613Z,85.22
2018-12-06T22:01:35.244Z,85.21
2018-12-06T22:04:04.200Z,85.02
2018-12-06T22:06:31.860Z,85.07
2018-12-06T22:08:59.666Z,84.97
2018-12-06T22:11:28.813Z,85.04
2018-12-06T22:13:56.450Z,84.74
2018-12-06T22:16:24.037Z,84.85
2018-12-06T22:18:51.608Z,84.70
2018-12-06T22:21:19.175Z,84.76
2018-12-06T22:23:47.080Z,84.61
2018-12-06T22:26:14.751Z,84.49
2018-12-06T22:28:42.723Z,84.54
2018-12-06T22:31:10.335Z,84.43
2018-12-06T22:33:37.900Z,84.59
2018-12-06T22:36:06.734Z,84.54
2018-12-06T22:38:35.334Z,84.46
2018-12-06T22:41:04.463Z,84.45
2018-12-06T22:43:33.030Z,84.58
2018-12-06T22:46:00.971Z,84.84
2018-12-06T22:48:28.664Z,84.41
2018-12-06T22:50:56.377Z,84.47
2018-12-06T22:53:24.931Z,84.52
2018-12-06T22:55:52.684Z,84.32
2018-12-06T22:58:20.266Z,84.42
2018-12-06T23:00:50.824Z,84.29
2018-12-06T23:03:18.551Z,84.28
2018-12-06T23:05:46.101Z,84.38
2018-12-06T23:08:13.631Z,84.60
2018-12-06T23:10:42.134Z,84.42
2018-12-06T23:13:10.175Z,84.50
2018-12-06T23:15:37.693Z,84.40
2018-12-06T23:18:05.202Z,84.57
2018-12-06T23:20:32.735Z,84.64
2018-12-06T23:23:00.294Z,85.01
2018-12-06T23:25:27.881Z,84.67
2018-12-06T23:27:55.425Z,84.78
2018-12-06T23:30:23.983Z,84.92
2018-12-06T23:32:51.572Z,84.92
2018-12-06T23:35:19.160Z,85.30
2018-12-06T23:37:46.727Z,85.28
2018-12-06T23:40:14.295Z,85.44
2018-12-06T23:42:41.962Z,85.34
2018-12-06T23:45:09.627Z,85.62
2018-12-06T23:47:38.403Z,85.65
2018-12-06T23:50:06.506Z,85.67
2018-12-06T23:52:34.886Z,85.57
2018-12-06T23:55:02.543Z,85.56
2018-12-06T23:57:30.815Z,85.53
2018-12-06T23:59:58.422Z,85.06
